Flight Track Log - Related Links

Times and Time Zones

All times are in EDT time to prevent confusion due to time zone crossing. See the N563WD flight status page for this flight to view local times or setup timezone preferences in your user account.

Time Position Orientation Groundspeed Altitude Reporting Facility
EDT Latitude Longitude Course Direction KTS MPH feet Rate Location/Type
Wed 09:34:15 AM 41.3000 -72.8833 285° West 185 213 1,600  Level New York TRACON
Wed 09:35:15 AM 41.3167 -72.9667 285° West 203 234 3,700 2,316 Climbing New York TRACON
Wed 09:36:09 AM 41.3167 -73.0333 270° West 231 266 6,000 1,263 Climbing New York TRACON
Wed 09:37:09 AM 41.3167 -73.1333 270° West 259 298 6,100 48 Climbing New York TRACON
Wed 09:38:15 AM 41.3167 -73.2333 270° West 257 296 6,100  Level New York TRACON
Wed 09:39:15 AM 41.3000 -73.3333 258° West 259 298 6,100  Level New York TRACON
Wed 09:40:09 AM 41.3000 -73.4167 270° West 256 295 6,100 50 Level New York TRACON
Wed 09:41:15 AM 41.2667 -73.5167 246° West 258 297 6,200 476 Climbing New York TRACON
Wed 09:42:15 AM 41.2333 -73.6000 242° Southwest 258 297 7,100 450 Climbing New York TRACON
Wed 09:43:15 AM 41.2000 -73.6667 236° Southwest 256 295 7,100  Level New York TRACON
Wed 09:44:09 AM 41.1833 -73.7500 255° West 241 277 7,100  Level New York TRACON
Wed 09:45:09 AM 41.1500 -73.8333 242° Southwest 254 292 7,100 50 Level New York TRACON
Wed 09:46:09 AM 41.1167 -73.9167 242° Southwest 259 298 7,200 1,700 Climbing New York TRACON
Wed 09:47:09 AM 41.0833 -74.0167 246° West 267 307 10,500 3,526 Climbing New York TRACON
Wed 09:48:03 AM 41.0500 -74.0833 236° Southwest 247 284 13,900 2,300 Climbing New York TRACON
Wed 09:49:09 AM 41.0167 -74.1833 246° West 279 321 15,100 817 Climbing New York TRACON
Wed 09:50:52 AM 40.9453 -74.3369 238° Southwest 305 351 16,200 736 Climbing New York Center
Wed 09:51:52 AM 40.8989 -74.4194 233° Southwest 311 358 17,100 450 Climbing New York Center
Wed 09:52:52 AM 40.8417 -74.5233 234° Southwest 322 371 17,100  Level New York Center
Wed 09:53:52 AM 40.7972 -74.6033 234° Southwest 317 365 17,100 1,150 Level New York Center
Wed 09:54:52 AM 40.7467 -74.6908 233° Southwest 311 358 19,400 2,650 Climbing New York Center
Wed 09:55:52 AM 40.7000 -74.7731 233° Southwest 305 351 22,400 2,800 Climbing New York Center
Wed 09:56:52 AM 40.6556 -74.8578 235° Southwest 295 339 25,000 2,550 Climbing New York Center
Wed 09:57:52 AM 40.6067 -74.9453 234° Southwest 283 326 27,500 1,950 Climbing New York Center
Wed 09:58:52 AM 40.5619 -75.0272 234° Southwest 278 320 28,900 1,300 Climbing New York Center
Wed 09:59:52 AM 40.5156 -75.1006 230° Southwest 278 320 30,100 1,050 Climbing New York Center
Wed 10:00:52 AM 40.4644 -75.1819 230° Southwest 278 320 31,000 1,250 Climbing New York Center
Wed 10:01:52 AM 40.4158 -75.2608 231° Southwest 283 326 32,600 1,300 Climbing New York Center
Wed 10:02:52 AM 40.3672 -75.3339 229° Southwest 278 320 33,600 700 Climbing New York Center
Wed 10:03:52 AM 40.3203 -75.4150 233° Southwest 278 320 34,000 350 Climbing New York Center
Wed 10:04:52 AM 40.2669 -75.4958 229° Southwest 283 326 34,300 500 Climbing New York Center
Wed 10:05:52 AM 40.2178 -75.5769 232° Southwest 289 333 35,000 350 Climbing New York Center
Wed 10:06:52 AM 40.1703 -75.6658 235° Southwest 289 333 35,000 300 Level New York Center
Wed 10:07:52 AM 40.1269 -75.7578 238° Southwest 296 341 35,600 1,050 Climbing New York Center
Wed 10:08:52 AM 40.0881 -75.8392 238° Southwest 291 335 37,100 1,300 Climbing New York Center
Wed 10:09:52 AM 40.0450 -75.9200 235° Southwest 279 321 38,200 1,050 Climbing New York Center
Wed 10:10:52 AM 40.0061 -75.9958 236° Southwest 269 310 39,200 950 Climbing New York Center
Wed 10:11:52 AM 39.9669 -76.0769 238° Southwest 269 310 40,100 700 Climbing New York Center
Wed 10:12:52 AM 39.9322 -76.1583 241° Southwest 269 310 40,600 450 Climbing New York Center
Wed 10:13:52 AM 39.8950 -76.2419 240° Southwest 269 310 41,000 200 Climbing New York Center
Wed 10:14:52 AM 39.8572 -76.3336 242° Southwest 269 310 41,000  Level New York Center
Wed 10:15:41 AM 39.8275 -76.4047 241° Southwest 280 322 41,000  Level Washington Center
Wed 10:16:42 AM 39.7853 -76.5069 242° Southwest 297 342 41,000  Level Washington Center
Wed 10:17:40 AM 39.7450 -76.5981 240° Southwest 313 360 41,000  Level Washington Center
Wed 10:18:41 AM 39.7022 -76.7000 241° Southwest 321 369 41,000  Level Washington Center
Wed 10:19:42 AM 39.6575 -76.8044 241° Southwest 327 376 41,000  Level Washington Center
Wed 10:20:40 AM 39.6147 -76.9114 243° Southwest 332 382 41,000  Level Washington Center
Wed 10:21:40 AM 39.5697 -77.0156 241° Southwest 332 382 41,000  Level Washington Center
Wed 10:22:41 AM 39.5247 -77.1197 241° Southwest 332 382 41,000  Level Washington Center
Wed 10:23:42 AM 39.4817 -77.2236 242° Southwest 332 382 41,000  Level Washington Center
Wed 10:24:40 AM 39.4364 -77.3300 241° Southwest 332 382 41,000  Level Washington Center
Wed 10:25:41 AM 39.3933 -77.4364 242° Southwest 332 382 41,000  Level Washington Center
Wed 10:26:42 AM 39.3478 -77.5428 241° Southwest 332 382 41,000  Level Washington Center
Wed 10:27:40 AM 39.3022 -77.6489 241° Southwest 332 382 41,000  Level Washington Center
Wed 10:28:40 AM 39.2522 -77.7681 242° Southwest 332 382 41,000  Level Washington Center
Wed 10:29:42 AM 39.2044 -77.8736 240° Southwest 338 389 41,000  Level Washington Center
Wed 10:30:42 AM 39.1586 -77.9819 241° Southwest 343 395 41,000  Level Washington Center
Wed 10:31:40 AM 39.1128 -78.0875 241° Southwest 343 395 41,000  Level Washington Center
Wed 10:32:41 AM 39.0667 -78.1928 241° Southwest 343 395 41,000  Level Washington Center
Wed 10:33:42 AM 39.0186 -78.2981 240° Southwest 343 395 41,000  Level Washington Center
Wed 10:34:40 AM 38.9722 -78.4058 241° Southwest 343 395 41,000  Level Washington Center
Wed 10:35:40 AM 38.9239 -78.5133 240° Southwest 343 395 41,000  Level Washington Center
Wed 10:36:40 AM 38.8775 -78.6208 241° Southwest 343 395 41,000  Level Washington Center
Wed 10:37:41 AM 38.8289 -78.7256 239° Southwest 343 395 41,000  Level Washington Center
Wed 10:38:42 AM 38.7822 -78.8353 241° Southwest 343 395 41,000  Level Washington Center
Wed 10:39:42 AM 38.7333 -78.9422 240° Southwest 343 395 41,000  Level Washington Center
Wed 10:40:41 AM 38.6844 -79.0517 240° Southwest 348 400 41,000  Level Washington Center
Wed 10:41:41 AM 38.6353 -79.1583 239° Southwest 348 400 41,000  Level Washington Center
Wed 10:42:42 AM 38.5969 -79.2575 244° Southwest 348 400 41,000  Level Washington Center
Wed 10:43:40 AM 38.5478 -79.3639 239° Southwest 348 400 41,000  Level Washington Center
Wed 10:44:41 AM 38.5006 -79.4731 241° Southwest 353 406 41,000  Level Washington Center
Wed 10:45:41 AM 38.4467 -79.5869 239° Southwest 347 399 41,000  Level Washington Center
Wed 10:46:42 AM 38.3994 -79.6903 240° Southwest 347 399 41,000  Level Washington Center
Wed 10:47:42 AM 38.3500 -79.7936 239° Southwest 347 399 41,000  Level Washington Center
Wed 10:48:40 AM 38.3069 -79.8889 240° Southwest 347 399 41,000  Level Washington Center
Wed 10:49:40 AM 38.2594 -79.9894 239° Southwest 347 399 41,000  Level Washington Center
Wed 10:50:42 AM 38.2119 -80.0922 240° Southwest 347 399 41,000  Level Washington Center
Wed 10:51:40 AM 38.1642 -80.1978 240° Southwest 347 399 41,000  Level Washington Center
Wed 10:52:40 AM 38.1097 -80.3078 238° Southwest 347 399 41,000 50 Level Washington Center
Wed 10:53:41 AM 38.0619 -80.4103 239° Southwest 347 399 41,100 333 Climbing Washington Center
Wed 10:55:40 AM 37.9719 -80.5967 239° Southwest 334 384 42,000 464 Climbing Indianapolis Center
Wed 10:56:42 AM 37.9250 -80.6950 239° Southwest 327 376 42,500 488 Climbing Indianapolis Center
Wed 10:57:43 AM 37.8786 -80.7928 239° Southwest 322 371 43,000 244 Climbing Indianapolis Center
Wed 10:58:45 AM 37.8319 -80.8914 239° Southwest 324 373 43,000  Level Indianapolis Center
Wed 10:59:47 AM 37.7794 -81.0000 239° Southwest 327 376 43,000  Level Indianapolis Center
Wed 11:00:48 AM 37.7331 -81.0967 239° Southwest 330 380 43,000  Level Indianapolis Center
Wed 11:01:50 AM 37.6778 -81.2125 239° Southwest 332 382 43,000  Level Indianapolis Center
Wed 11:02:52 AM 37.6306 -81.3114 239° Southwest 335 386 43,000  Level Indianapolis Center
Wed 11:03:54 AM 37.5836 -81.4081 239° Southwest 334 384 43,000  Level Indianapolis Center
Wed 11:04:55 AM 37.5325 -81.5136 239° Southwest 336 387 43,000  Level Indianapolis Center
Wed 11:05:57 AM 37.4836 -81.6147 239° Southwest 337 388 43,000  Level Indianapolis Center
Wed 11:06:59 AM 37.4336 -81.7161 238° Southwest 340 391 43,000  Level Indianapolis Center
Wed 11:08:01 AM 37.3769 -81.8347 239° Southwest 339 390 43,000  Level Indianapolis Center
Wed 11:09:02 AM 37.3269 -81.9369 238° Southwest 342 394 43,000  Level Indianapolis Center
Wed 11:10:04 AM 37.2753 -82.0386 237° Southwest 342 394 43,000  Level Indianapolis Center
Wed 11:11:06 AM 37.2247 -82.1414 238° Southwest 344 396 43,000  Level Indianapolis Center
Wed 11:12:07 AM 37.1744 -82.2439 238° Southwest 344 396 43,000  Level Indianapolis Center
Wed 11:13:09 AM 37.1233 -82.3458 238° Southwest 344 396 43,000  Level Indianapolis Center
Wed 11:14:11 AM 37.0636 -82.4647 238° Southwest 346 398 43,000  Level Indianapolis Center
Wed 11:15:12 AM 37.0117 -82.5672 238° Southwest 347 399 43,000  Level Indianapolis Center
Wed 11:16:14 AM 36.9603 -82.6706 238° Southwest 348 400 43,000  Level Indianapolis Center
Wed 11:17:16 AM 36.9053 -82.7819 238° Southwest 350 403 43,000  Level Indianapolis Center
Wed 11:18:17 AM 36.8508 -82.8836 236° Southwest 351 404 43,000  Level Indianapolis Center
Wed 11:19:19 AM 36.7992 -82.9886 238° Southwest 354 407 43,000  Level Indianapolis Center
Wed 11:20:21 AM 36.7467 -83.0922 238° Southwest 352 405 43,000  Level Indianapolis Center
Wed 11:21:22 AM 36.6942 -83.1956 238° Southwest 351 404 43,000  Level Indianapolis Center
Wed 11:22:24 AM 36.6417 -83.2986 238° Southwest 352 405 43,000  Level Indianapolis Center
Wed 11:23:26 AM 36.5875 -83.4022 237° Southwest 354 407 43,000  Level Indianapolis Center
Wed 11:24:27 AM 36.5244 -83.5233 237° Southwest 356 410 43,000  Level Indianapolis Center
Wed 11:25:29 AM 36.4711 -83.6297 238° Southwest 357 411 43,000  Level Indianapolis Center
Wed 11:26:31 AM 36.4181 -83.7342 238° Southwest 358 412 43,000  Level Indianapolis Center
Wed 11:27:32 AM 36.3644 -83.8369 237° Southwest 355 409 43,000  Level Indianapolis Center
Wed 11:28:34 AM 36.3094 -83.9406 237° Southwest 358 412 43,000  Level Indianapolis Center
Wed 11:29:36 AM 36.2550 -84.0450 237° Southwest 360 414 43,000  Level Indianapolis Center
Wed 11:31:33 AM 36.1436 -84.2572 237° Southwest 365 420 43,000  Level Atlanta Center
Wed 11:32:33 AM 36.0892 -84.3600 237° Southwest 365 420 43,000  Level Atlanta Center
Wed 11:33:33 AM 36.0367 -84.4625 238° Southwest 365 420 43,000  Level Atlanta Center
Wed 11:34:33 AM 35.9822 -84.5622 236° Southwest 365 420 43,000  Level Atlanta Center
Wed 11:35:33 AM 35.9294 -84.6594 236° Southwest 360 414 43,000  Level Atlanta Center
Wed 11:36:33 AM 35.8853 -84.7436 237° Southwest 360 414 43,000  Level Atlanta Center
Wed 11:37:33 AM 35.8242 -84.8558 236° Southwest 360 414 43,000  Level Atlanta Center
Wed 11:38:33 AM 35.7692 -84.9550 236° Southwest 365 420 43,000  Level Atlanta Center
Wed 11:39:33 AM 35.7119 -85.0644 237° Southwest 372 428 43,000  Level Atlanta Center
Wed 11:40:33 AM 35.6589 -85.1633 237° Southwest 367 422 43,000  Level Atlanta Center
Wed 11:41:10 AM 35.6303 -85.2164 236° Southwest 355 409 43,000  Level Memphis Center
Wed 11:42:12 AM 35.5761 -85.3167 236° Southwest 352 405 43,000  Level Memphis Center
Wed 11:43:14 AM 35.5100 -85.4378 236° Southwest 355 409 43,000  Level Memphis Center
Wed 11:44:16 AM 35.4547 -85.5383 236° Southwest 355 409 43,000  Level Memphis Center
Wed 11:45:18 AM 35.4000 -85.6403 237° Southwest 357 411 43,000  Level Memphis Center
Wed 11:46:20 AM 35.3447 -85.7408 236° Southwest 357 411 43,000  Level Memphis Center
Wed 11:47:22 AM 35.2892 -85.8414 236° Southwest 357 411 43,000  Level Memphis Center
Wed 11:48:24 AM 35.2331 -85.9428 236° Southwest 358 412 43,000  Level Memphis Center
Wed 11:49:26 AM 35.1653 -86.0639 236° Southwest 360 414 43,000  Level Memphis Center
Wed 11:50:28 AM 35.1092 -86.1650 236° Southwest 360 414 43,000  Level Memphis Center
Wed 11:51:30 AM 35.0542 -86.2633 236° Southwest 359 413 43,000  Level Memphis Center
Wed 11:52:32 AM 34.9986 -86.3633 236° Southwest 358 412 43,000  Level Memphis Center
Wed 11:53:34 AM 34.9422 -86.4636 236° Southwest 358 412 43,000  Level Memphis Center
Wed 11:54:36 AM 34.8750 -86.5822 235° Southwest 356 410 43,000  Level Memphis Center
Wed 11:55:38 AM 34.8192 -86.6822 236° Southwest 358 412 43,000  Level Memphis Center
Wed 11:56:40 AM 34.7625 -86.7814 235° Southwest 357 411 43,000  Level Memphis Center
Wed 11:57:42 AM 34.7031 -86.8861 235° Southwest 357 411 43,000  Level Memphis Center
Wed 11:58:44 AM 34.6458 -86.9872 235° Southwest 359 413 43,000  Level Memphis Center
Wed 11:59:46 AM 34.5883 -87.0875 235° Southwest 359 413 43,000  Level Memphis Center
Wed 12:00:49 PM 34.5314 -87.1878 235° Southwest 358 412 43,000  Level Memphis Center
Wed 12:01:51 PM 34.4678 -87.2989 235° Southwest 357 411 43,000  Level Memphis Center
Wed 12:02:53 PM 34.4103 -87.3981 235° Southwest 358 412 43,000  Level Memphis Center
Wed 12:03:55 PM 34.3525 -87.4986 235° Southwest 358 412 43,000  Level Memphis Center
Wed 12:04:57 PM 34.2947 -87.5986 235° Southwest 359 413 43,000  Level Memphis Center
Wed 12:05:59 PM 34.2358 -87.6983 234° Southwest 359 413 43,000  Level Memphis Center
Wed 12:07:01 PM 34.1783 -87.7983 235° Southwest 358 412 43,000  Level Memphis Center
Wed 12:08:03 PM 34.1208 -87.8975 235° Southwest 357 411 43,000  Level Memphis Center
Wed 12:09:05 PM 34.0517 -88.0156 235° Southwest 363 418 43,000  Level Memphis Center
Wed 12:10:07 PM 33.9928 -88.1150 234° Southwest 361 415 43,000  Level Memphis Center
Wed 12:11:09 PM 33.9342 -88.2161 235° Southwest 362 417 43,000  Level Memphis Center
Wed 12:12:11 PM 33.8744 -88.3150 234° Southwest 364 419 43,000  Level Memphis Center
Wed 12:13:13 PM 33.8164 -88.4144 235° Southwest 365 420 43,000  Level Memphis Center
Wed 12:14:15 PM 33.7583 -88.5133 235° Southwest 363 418 43,000  Level Memphis Center
Wed 12:15:17 PM 33.7006 -88.6119 235° Southwest 363 418 43,000  Level Memphis Center
Wed 12:16:19 PM 33.6300 -88.7286 234° Southwest 362 417 43,000  Level Memphis Center
Wed 12:17:21 PM 33.5714 -88.8267 234° Southwest 362 417 43,000  Level Memphis Center
Wed 12:18:23 PM 33.5125 -88.9250 234° Southwest 359 413 43,000  Level Memphis Center
Wed 12:19:25 PM 33.4536 -89.0208 234° Southwest 360 414 43,000  Level Memphis Center
Wed 12:20:28 PM 33.3950 -89.1181 234° Southwest 361 415 43,000  Level Memphis Center
Wed 12:21:30 PM 33.3367 -89.2150 234° Southwest 362 417 43,000  Level Memphis Center
Wed 12:22:32 PM 33.2661 -89.3311 234° Southwest 361 415 43,000  Level Memphis Center
Wed 12:23:34 PM 33.2075 -89.4272 234° Southwest 361 415 43,000  Level Memphis Center
Wed 12:24:36 PM 33.1494 -89.5233 234° Southwest 360 414 43,000  Level Memphis Center
Wed 12:25:38 PM 33.0908 -89.6189 234° Southwest 359 413 43,000  Level Memphis Center
Wed 12:26:40 PM 33.0342 -89.7125 234° Southwest 355 409 43,000  Level Memphis Center
Wed 12:27:42 PM 32.9639 -89.8239 233° Southwest 361 415 43,000  Level Memphis Center
Wed 12:28:44 PM 32.9047 -89.9211 234° Southwest 360 414 43,000  Level Memphis Center
Wed 12:29:46 PM 32.8381 -90.0289 234° Southwest 359 413 43,000  Level Memphis Center
Wed 12:30:48 PM 32.7806 -90.1233 234° Southwest 357 411 43,000  Level Memphis Center
Wed 12:31:50 PM 32.7225 -90.2158 233° Southwest 352 405 43,000  Level Memphis Center
Wed 12:32:52 PM 32.6639 -90.3111 234° Southwest 357 411 43,000  Level Memphis Center
Wed 12:33:54 PM 32.6042 -90.4039 233° Southwest 357 411 43,000  Level Memphis Center
Wed 12:34:56 PM 32.5450 -90.4983 233° Southwest 358 412 43,000  Level Memphis Center
Wed 12:35:58 PM 32.4742 -90.6119 234° Southwest 359 413 43,000  Level Memphis Center
Wed 12:37:00 PM 32.4156 -90.7064 234° Southwest 358 412 43,000  Level Memphis Center
Wed 12:38:04 PM 32.3522 -90.8067 233° Southwest 357 411 43,000  Level Houston Center
Wed 12:39:06 PM 32.2919 -90.9011 233° Southwest 359 413 43,000  Level Houston Center
Wed 12:40:08 PM 32.2331 -90.9947 233° Southwest 357 411 43,000  Level Houston Center
Wed 12:41:10 PM 32.1736 -91.0881 233° Southwest 355 409 43,000  Level Houston Center
Wed 12:42:12 PM 32.1158 -91.1800 233° Southwest 353 406 43,000  Level Houston Center
Wed 12:43:14 PM 32.0444 -91.2914 233° Southwest 354 407 43,000  Level Houston Center
Wed 12:44:16 PM 31.9850 -91.3819 232° Southwest 351 404 43,000  Level Houston Center
Wed 12:45:18 PM 31.9289 -91.4742 234° Southwest 348 400 43,000  Level Houston Center
Wed 12:46:21 PM 31.8847 -91.5756 243° Southwest 347 399 43,000  Level Houston Center
Wed 12:47:23 PM 31.8394 -91.6764 242° Southwest 349 402 43,000  Level Houston Center
Wed 12:48:25 PM 31.7833 -91.7958 241° Southwest 349 402 43,000  Level Houston Center
Wed 12:49:27 PM 31.7378 -91.8958 242° Southwest 349 402 43,000  Level Houston Center
Wed 12:50:29 PM 31.6908 -91.9964 241° Southwest 350 403 43,000  Level Houston Center
Wed 12:51:31 PM 31.6403 -92.1089 242° Southwest 354 407 43,000  Level Houston Center
Wed 12:52:33 PM 31.5939 -92.2083 241° Southwest 350 403 43,000  Level Houston Center
Wed 12:53:35 PM 31.5467 -92.3108 242° Southwest 357 411 43,000  Level Houston Center
Wed 12:54:37 PM 31.4994 -92.4117 241° Southwest 356 410 43,000  Level Houston Center
Wed 12:55:39 PM 31.4525 -92.5131 242° Southwest 357 411 43,000  Level Houston Center
Wed 12:56:41 PM 31.4042 -92.6147 241° Southwest 357 411 43,000  Level Houston Center
Wed 12:57:43 PM 31.3500 -92.7372 243° Southwest 357 411 43,000  Level Houston Center
Wed 12:58:45 PM 31.3025 -92.8358 241° Southwest 351 404 43,000  Level Houston Center
Wed 12:59:47 PM 31.2558 -92.9361 241° Southwest 351 404 43,000  Level Houston Center
Wed 01:00:49 PM 31.2083 -93.0350 241° Southwest 350 403 43,000  Level Houston Center
Wed 01:01:51 PM 31.1628 -93.1339 242° Southwest 348 400 43,000 -49 Level Houston Center
Wed 01:02:52 PM 31.1147 -93.2328 240° Southwest 351 404 42,900 -1,024 Descending Houston Center
Wed 01:03:54 PM 31.0600 -93.3506 242° Southwest 346 398 40,900 -1,887 Descending Houston Center
Wed 01:04:56 PM 31.0114 -93.4492 240° Southwest 352 405 39,000 -1,790 Descending Houston Center
Wed 01:05:58 PM 30.9650 -93.5481 241° Southwest 350 403 37,200 -1,790 Descending Houston Center
Wed 01:07:00 PM 30.9178 -93.6481 241° Southwest 353 406 35,300 -1,597 Descending Houston Center
Wed 01:08:02 PM 30.8703 -93.7467 241° Southwest 352 405 33,900 -1,548 Descending Houston Center
Wed 01:09:04 PM 30.8217 -93.8489 241° Southwest 360 414 32,100 -1,065 Descending Houston Center
Wed 01:10:06 PM 30.7594 -93.9772 241° Southwest 379 436 31,700 -1,258 Descending Houston Center
Wed 01:11:08 PM 30.7058 -94.0858 240° Southwest 386 444 29,500 -2,323 Descending Houston Center
Wed 01:12:10 PM 30.6519 -94.1989 241° Southwest 396 456 26,900 -2,516 Descending Houston Center
Wed 01:13:12 PM 30.5936 -94.3189 241° Southwest 417 480 24,300 -2,769 Descending Houston Center
Wed 01:13:41 PM 30.5583 -94.3925 241° Southwest 433 498 22,700 -2,613 Descending Houston Center
Wed 01:14:14 PM 30.5347 -94.4392 240° Southwest 427 491 21,600 -2,656 Descending Houston Center
Wed 01:14:42 PM 30.4967 -94.5144 240° Southwest 413 475 20,000 -2,852 Descending Houston Center
Wed 01:15:15 PM 30.4642 -94.5669 234° Southwest 403 464 18,700 -2,226 Descending Houston Center
Wed 01:15:44 PM 30.4308 -94.6153 231° Southwest 385 443 17,700 -2,032 Descending Houston Center
Wed 01:16:17 PM 30.4031 -94.6611 235° Southwest 387 445 16,600 -2,262 Descending Houston Center
Wed 01:16:45 PM 30.3689 -94.7128 233° Southwest 372 428 15,400 -2,226 Descending Houston Center
Wed 01:17:19 PM 30.3425 -94.7558 235° Southwest 373 429 14,300 -2,262 Descending Houston Center
Wed 01:17:46 PM 30.3050 -94.8131 233° Southwest 362 417 13,100 -1,258 Descending Houston Center
Wed 01:18:21 PM 30.2825 -94.8483 234° Southwest 364 419 13,000 -387 Descending Houston Center
Wed 01:18:48 PM 30.2444 -94.9053 232° Southwest 362 417 12,700 -1,065 Descending Houston Center
Wed 01:19:23 PM 30.2094 -94.9608 234° Southwest 365 420 11,900 -1,475 Descending Houston Center
Wed 01:19:49 PM 30.1819 -95.0003 231° Southwest 366 421 11,200 -1,452 Descending Houston Center
Wed 01:20:25 PM 30.1472 -95.0542 233° Southwest 367 422 10,400 -1,075 Descending Houston Center
Wed 01:20:56 PM 30.0936 -95.0886 209° Southwest 375 432 10,000 -387 Descending Houston Center
Wed 01:21:27 PM 30.0542 -95.1050 200° South 374 430 10,000  Level Houston Center
Wed 01:21:52 PM 30.0047 -95.1261 200° South 373 429 10,000 -290 Level Houston Center
Wed 01:22:29 PM 29.9586 -95.1469 201° Southwest 371 427 9,700 -1,082 Descending Houston Center
Wed 01:22:53 PM 29.9097 -95.1667 199° South 343 395 8,900 -1,452 Descending Houston Center
Wed 01:23:31 PM 29.8711 -95.1842 201° Southwest 342 394 8,200 -1,548 Descending Houston Center
Wed 01:23:55 PM 29.8292 -95.2031 201° Southwest 295 339 7,300 -1,869 Descending Houston Center
Wed 01:24:32 PM 29.7942 -95.2175 200° South 306 352 6,300 -1,279 Descending Houston Center
Wed 01:24:56 PM 29.7564 -95.2336 200° South 272 313 6,000 -290 Descending Houston Center
Wed 01:25:34 PM 29.7086 -95.2550 201° Southwest 280 322 6,000  Level Houston Center
Wed 01:26:03 PM 29.6719 -95.2750 205° Southwest 293 337 6,000  Level Houston Center
Wed 01:26:36 PM 29.6561 -95.3158 246° West 294 338 6,000 -321 Level Houston Center
Wed 01:26:59 PM 29.6453 -95.3506 250° West 273 314 5,700 -1,645 Descending Houston Center
Wed 01:27:38 PM 29.6417 -95.3956 265° West 269 310 4,300 -2,361 Descending Houston Center
Wed 01:28:00 PM 29.6561 -95.4236 301° West 239 275 3,300 -1,258 Descending Houston Center
Wed 01:28:40 PM 29.6875 -95.4383 338° Northwest 246 283 3,000 -627 Descending Houston Center
Wed 01:29:07 PM 29.7158 -95.4092 42° Northeast 225 259 2,600 -984 Descending Houston Center
Wed 01:29:41 PM 29.7214 -95.3797 78° East 240 276 2,000 -1,179 Descending Houston Center
Wed 01:30:03 PM 29.7039 -95.3481 122° Southeast 227 261 1,500 -968 Descending Houston Center
Wed 01:30:43 PM 29.6867 -95.3247 130° Southeast 221 254 1,000 -818 Descending Houston Center
Wed 01:31:09 PM 29.6683 -95.3044 136° Southeast 166 191 600 -774 Descending Houston Center
Wed 01:31:45 PM 29.6564 -95.2889 131° Southeast 157 181 200 -667 Descending Houston Center

Login

Don't have an account? Register now (free) for customized features, flight alerts, and more!